createdAt,value
2023-12-01T00:00:54.405Z,0.00
2023-12-01T00:01:54.551Z,0.00
2023-12-01T00:02:54.251Z,0.00
2023-12-01T00:03:54.283Z,0.00
2023-12-01T00:04:54.207Z,0.00
2023-12-01T00:05:54.191Z,0.00
2023-12-01T00:06:54.226Z,0.00
2023-12-01T00:07:54.177Z,0.00
2023-12-01T00:08:54.160Z,0.00
2023-12-01T00:09:54.188Z,0.00
2023-12-01T00:10:54.140Z,0.00
2023-12-01T00:11:54.144Z,0.00
2023-12-01T00:12:54.180Z,0.00
2023-12-01T00:13:54.106Z,0.00
2023-12-01T00:14:54.098Z,0.00
2023-12-01T00:15:54.109Z,0.00
2023-12-01T00:16:54.084Z,0.00
2023-12-01T00:17:54.119Z,0.00
2023-12-01T00:18:54.128Z,0.00
2023-12-01T00:19:54.055Z,0.00
2023-12-01T00:20:54.044Z,0.00
2023-12-01T00:21:54.057Z,0.00
2023-12-01T00:22:54.045Z,0.00
2023-12-01T00:23:54.008Z,0.00
2023-12-01T00:24:54.061Z,0.00
2023-12-01T00:25:53.988Z,0.00
2023-12-01T00:26:53.979Z,0.00
2023-12-01T00:27:53.998Z,0.00
2023-12-01T00:28:53.961Z,0.00
2023-12-01T00:29:53.941Z,0.00
2023-12-01T00:30:53.984Z,0.00
2023-12-01T00:31:53.933Z,0.00
2023-12-01T00:32:53.992Z,0.00
2023-12-01T00:33:53.940Z,0.00
2023-12-01T00:34:53.889Z,0.00
2023-12-01T00:35:53.887Z,0.00
2023-12-01T00:36:53.911Z,0.00
2023-12-01T00:37:53.856Z,0.00
2023-12-01T00:38:53.844Z,0.00
2023-12-01T00:39:53.878Z,0.00
2023-12-01T00:40:53.840Z,0.00
2023-12-01T00:41:53.825Z,0.00
2023-12-01T00:42:53.834Z,0.00
2023-12-01T00:43:53.859Z,0.00
2023-12-01T00:44:53.829Z,0.00
2023-12-01T00:45:53.835Z,0.00
2023-12-01T00:46:53.825Z,0.00
2023-12-01T00:47:53.775Z,0.00
2023-12-01T00:48:53.784Z,0.00
2023-12-01T00:49:53.761Z,0.00
2023-12-01T00:50:53.747Z,0.00
2023-12-01T00:51:53.728Z,0.00
2023-12-01T00:52:53.701Z,0.00
2023-12-01T00:53:53.694Z,0.00
2023-12-01T00:54:53.705Z,0.00
2023-12-01T00:55:53.695Z,0.00
2023-12-01T00:56:53.654Z,0.00
2023-12-01T00:57:53.666Z,0.00
2023-12-01T00:58:53.656Z,0.00
2023-12-01T00:59:53.649Z,0.00
2023-12-01T01:00:53.661Z,0.00
2023-12-01T01:01:53.652Z,0.00
2023-12-01T01:02:53.639Z,0.00
2023-12-01T01:03:53.659Z,0.00
2023-12-01T01:04:53.652Z,0.00
2023-12-01T01:05:53.578Z,0.00
2023-12-01T01:06:53.628Z,0.00
2023-12-01T01:07:53.550Z,0.00
2023-12-01T01:08:53.548Z,0.00
2023-12-01T01:09:53.595Z,0.00
2023-12-01T01:10:53.511Z,0.00
2023-12-01T01:11:53.507Z,0.00
2023-12-01T01:12:53.601Z,0.00
2023-12-01T01:13:53.498Z,0.00
2023-12-01T01:14:53.480Z,0.00
2023-12-01T01:15:53.519Z,0.00
2023-12-01T01:16:53.506Z,0.00
2023-12-01T01:17:53.496Z,0.00
2023-12-01T01:18:53.450Z,0.00
2023-12-01T01:19:53.418Z,0.00
2023-12-01T01:20:53.414Z,0.00
2023-12-01T01:21:53.442Z,0.00
2023-12-01T01:22:53.406Z,0.00
2023-12-01T01:23:53.393Z,0.00
2023-12-01T01:24:53.402Z,0.00
2023-12-01T01:25:53.364Z,0.00
2023-12-01T01:26:53.349Z,0.00
2023-12-01T01:27:53.367Z,0.00
2023-12-01T01:28:53.330Z,0.00
2023-12-01T01:29:53.326Z,0.00
2023-12-01T01:30:53.368Z,0.00
2023-12-01T01:31:53.334Z,0.00
2023-12-01T01:32:53.297Z,0.00
2023-12-01T01:33:53.313Z,0.00
2023-12-01T01:34:53.271Z,0.00
2023-12-01T01:35:53.273Z,0.00
2023-12-01T01:36:53.343Z,0.00
2023-12-01T01:37:53.241Z,0.00
2023-12-01T01:38:53.219Z,0.00
2023-12-01T01:39:53.253Z,0.00
2023-12-01T01:40:53.241Z,0.00
2023-12-01T01:41:53.214Z,0.00
2023-12-01T01:42:53.212Z,0.00
2023-12-01T01:43:53.186Z,0.00
2023-12-01T01:44:53.170Z,0.00
2023-12-01T01:45:53.218Z,0.00
2023-12-01T01:46:53.217Z,0.00
2023-12-01T01:47:53.157Z,0.00
2023-12-01T01:48:53.162Z,0.00
2023-12-01T01:49:53.113Z,0.00
2023-12-01T01:50:53.106Z,0.00
2023-12-01T01:51:53.120Z,0.00
2023-12-01T01:52:53.100Z,0.00
2023-12-01T01:53:53.075Z,0.00
2023-12-01T01:54:53.081Z,0.00
2023-12-01T01:55:53.062Z,0.00
2023-12-01T01:56:53.053Z,0.00
2023-12-01T01:57:53.060Z,0.00
2023-12-01T01:58:53.037Z,0.00
2023-12-01T01:59:53.011Z,0.00
2023-12-01T02:00:53.065Z,0.00
2023-12-01T02:01:53.151Z,0.00
2023-12-01T02:02:53.015Z,0.00
2023-12-01T02:03:53.004Z,0.00
2023-12-01T02:04:52.954Z,0.00
2023-12-01T02:05:52.981Z,0.00
2023-12-01T02:06:52.937Z,0.00
2023-12-01T02:07:52.941Z,0.00
2023-12-01T02:08:52.920Z,0.00
2023-12-01T02:09:52.952Z,0.00
2023-12-01T02:10:52.899Z,0.00
2023-12-01T02:11:52.883Z,0.00
2023-12-01T02:12:52.893Z,0.00
2023-12-01T02:13:52.862Z,0.00
2023-12-01T02:14:52.867Z,0.00
2023-12-01T02:15:52.874Z,0.00
2023-12-01T02:16:52.907Z,0.00
2023-12-01T02:17:52.875Z,0.00
2023-12-01T02:18:52.886Z,0.00
2023-12-01T02:19:52.855Z,0.00
2023-12-01T02:20:52.801Z,0.00
2023-12-01T02:21:53.045Z,0.00
2023-12-01T02:22:52.765Z,0.00
2023-12-01T02:23:52.774Z,0.00
2023-12-01T02:24:52.781Z,0.00
2023-12-01T02:25:52.739Z,0.00
2023-12-01T02:26:52.726Z,0.00
2023-12-01T02:27:52.747Z,0.00
2023-12-01T02:28:52.718Z,0.00
2023-12-01T02:29:52.703Z,0.00
2023-12-01T02:30:52.698Z,0.00
2023-12-01T02:31:52.705Z,0.00
2023-12-01T02:32:52.700Z,0.00
2023-12-01T02:33:52.687Z,0.00
2023-12-01T02:34:52.648Z,0.00
2023-12-01T02:35:52.641Z,0.00
2023-12-01T02:36:52.631Z,0.00
2023-12-01T02:37:52.609Z,0.00
2023-12-01T02:38:52.612Z,0.00
2023-12-01T02:39:52.676Z,0.00
2023-12-01T02:40:52.917Z,0.00
2023-12-01T02:41:52.592Z,0.00
2023-12-01T02:42:52.637Z,0.00
2023-12-01T02:43:52.599Z,0.00
2023-12-01T02:44:52.544Z,0.00
2023-12-01T02:45:52.592Z,0.00
2023-12-01T02:46:52.597Z,0.00
2023-12-01T02:47:52.568Z,0.00
2023-12-01T02:48:52.761Z,0.00
2023-12-01T02:49:52.495Z,0.00
2023-12-01T02:50:52.495Z,0.00
2023-12-01T02:51:52.499Z,0.00
2023-12-01T02:52:52.468Z,0.00
2023-12-01T02:53:52.442Z,0.00
2023-12-01T02:54:52.466Z,0.00
2023-12-01T02:55:52.432Z,0.00
2023-12-01T02:56:52.463Z,0.00
2023-12-01T02:57:52.459Z,0.00
2023-12-01T02:58:52.394Z,0.00
2023-12-01T02:59:52.379Z,0.00
2023-12-01T03:00:52.391Z,0.00
2023-12-01T03:01:52.525Z,0.00
2023-12-01T03:02:52.352Z,0.00
2023-12-01T03:03:52.377Z,0.00
2023-12-01T03:04:52.331Z,0.00
2023-12-01T03:05:52.316Z,0.00
2023-12-01T03:06:52.425Z,0.00
2023-12-01T03:07:52.307Z,0.00
2023-12-01T03:08:52.289Z,0.00
2023-12-01T03:09:52.308Z,0.00
2023-12-01T03:10:52.273Z,0.00
2023-12-01T03:11:52.268Z,0.00
2023-12-01T03:12:52.437Z,0.00
2023-12-01T03:13:53.375Z,0.00
2023-12-01T03:15:05.581Z,0.00
2023-12-01T03:15:54.416Z,0.00
2023-12-01T03:16:53.433Z,0.00
2023-12-01T03:17:53.376Z,0.00
2023-12-01T03:18:53.374Z,0.00
2023-12-01T03:19:53.305Z,0.00
2023-12-01T03:20:53.323Z,0.00
2023-12-01T03:21:53.303Z,0.00
2023-12-01T03:22:53.324Z,0.00
2023-12-01T03:23:53.302Z,0.00
2023-12-01T03:24:53.291Z,0.00
2023-12-01T03:25:53.277Z,0.00
2023-12-01T03:26:53.258Z,0.00
2023-12-01T03:27:53.293Z,0.00
2023-12-01T03:28:53.252Z,0.00
2023-12-01T03:29:53.250Z,0.00
2023-12-01T03:30:53.268Z,0.00
2023-12-01T03:31:53.330Z,0.00
2023-12-01T03:32:53.267Z,0.00
2023-12-01T03:33:53.195Z,0.00
2023-12-01T03:34:53.207Z,0.00
2023-12-01T03:35:53.177Z,0.00
2023-12-01T03:36:53.188Z,0.00
2023-12-01T03:37:53.154Z,0.00
2023-12-01T03:38:53.145Z,0.00
2023-12-01T03:39:53.120Z,0.00
2023-12-01T03:40:53.113Z,0.00
2023-12-01T03:41:53.138Z,0.00
2023-12-01T03:42:53.447Z,0.00
2023-12-01T03:43:53.068Z,0.00
2023-12-01T03:44:53.087Z,0.00
2023-12-01T03:45:53.128Z,0.00
2023-12-01T03:46:53.149Z,0.00
2023-12-01T03:47:53.416Z,0.00
2023-12-01T03:48:53.050Z,0.00
2023-12-01T03:49:53.046Z,0.00
2023-12-01T03:50:53.009Z,0.00
2023-12-01T03:51:53.067Z,0.00
2023-12-01T03:52:53.085Z,0.00
2023-12-01T03:53:52.987Z,0.00
2023-12-01T03:54:52.978Z,0.00
2023-12-01T03:55:52.989Z,0.00
2023-12-01T03:56:52.974Z,0.00
2023-12-01T03:57:52.996Z,0.00
2023-12-01T03:58:52.957Z,0.00
2023-12-01T03:59:52.948Z,0.00
2023-12-01T04:00:52.989Z,0.00
2023-12-01T04:01:52.942Z,0.00
2023-12-01T04:02:52.920Z,0.00
2023-12-01T04:03:52.966Z,0.00
2023-12-01T04:04:52.950Z,0.00
2023-12-01T04:05:52.892Z,0.00
2023-12-01T04:06:52.904Z,0.00
2023-12-01T04:07:54.972Z,0.00
2023-12-01T04:08:52.861Z,0.00
2023-12-01T04:09:52.846Z,0.00
2023-12-01T04:10:52.831Z,0.00
2023-12-01T04:11:52.818Z,0.00
2023-12-01T04:12:52.851Z,0.00
2023-12-01T04:13:52.819Z,0.00
2023-12-01T04:14:52.785Z,0.00
2023-12-01T04:15:52.827Z,0.00
2023-12-01T04:16:52.772Z,0.00
2023-12-01T04:17:53.844Z,0.00
2023-12-01T04:18:52.783Z,0.00
2023-12-01T04:19:52.729Z,0.00
2023-12-01T04:20:52.708Z,0.00
2023-12-01T04:21:52.781Z,0.00
2023-12-01T04:22:52.716Z,0.00
2023-12-01T04:23:52.698Z,0.00
2023-12-01T04:24:52.691Z,0.00
2023-12-01T04:25:52.676Z,0.00
2023-12-01T04:26:52.712Z,0.00
2023-12-01T04:27:52.689Z,0.00
2023-12-01T04:28:52.633Z,0.00
2023-12-01T04:29:52.651Z,0.00
2023-12-01T04:30:52.684Z,0.00
2023-12-01T04:32:00.316Z,0.00
2023-12-01T04:32:55.871Z,0.00
2023-12-01T04:33:52.615Z,0.00
2023-12-01T04:34:52.709Z,0.00
2023-12-01T04:35:52.613Z,0.00
2023-12-01T04:36:52.610Z,0.00
2023-12-01T04:37:52.658Z,0.00
2023-12-01T04:38:52.566Z,0.00
2023-12-01T04:39:52.591Z,0.00
2023-12-01T04:40:52.548Z,0.00
2023-12-01T04:41:52.563Z,0.00
2023-12-01T04:42:52.601Z,0.00
2023-12-01T04:43:52.516Z,0.00
2023-12-01T04:44:52.969Z,0.00
2023-12-01T04:45:52.562Z,0.00
2023-12-01T04:46:52.577Z,0.00
2023-12-01T04:47:52.629Z,0.00
2023-12-01T04:48:52.509Z,0.00
2023-12-01T04:49:52.504Z,0.00
2023-12-01T04:50:52.440Z,0.00
2023-12-01T04:51:52.466Z,0.00
2023-12-01T04:52:52.441Z,0.00
2023-12-01T04:53:52.430Z,0.00
2023-12-01T04:54:52.429Z,0.00
2023-12-01T04:55:52.398Z,0.00
2023-12-01T04:56:52.379Z,0.00
2023-12-01T04:57:52.401Z,0.00
2023-12-01T04:58:52.389Z,0.00
2023-12-01T04:59:52.346Z,0.00
2023-12-01T05:00:52.417Z,0.00
2023-12-01T05:01:52.361Z,0.00
2023-12-01T05:02:52.350Z,0.00
2023-12-01T05:03:54.600Z,0.00
2023-12-01T05:04:52.364Z,0.00
2023-12-01T05:05:52.306Z,0.00
2023-12-01T05:06:52.331Z,0.00
2023-12-01T05:07:52.248Z,0.00
2023-12-01T05:08:52.266Z,0.00
2023-12-01T05:09:53.246Z,0.00
2023-12-01T05:10:52.256Z,0.00
2023-12-01T05:11:52.219Z,0.00
2023-12-01T05:12:52.318Z,0.00
2023-12-01T05:13:52.207Z,0.00
2023-12-01T05:14:52.210Z,0.00
2023-12-01T05:15:52.237Z,0.00
2023-12-01T05:16:52.210Z,0.00
2023-12-01T05:17:52.175Z,0.00
2023-12-01T05:18:52.182Z,0.00
2023-12-01T05:19:52.184Z,0.00
2023-12-01T05:20:52.150Z,0.00
2023-12-01T05:21:52.138Z,0.00
2023-12-01T05:22:52.141Z,0.00
2023-12-01T05:23:52.107Z,0.00
2023-12-01T05:24:52.139Z,0.00
2023-12-01T05:25:52.279Z,0.00
2023-12-01T05:26:54.529Z,0.00
2023-12-01T05:27:53.171Z,0.00
2023-12-01T05:28:52.748Z,0.00
2023-12-01T05:29:52.062Z,0.00
2023-12-01T05:30:52.076Z,0.00
2023-12-01T05:31:52.092Z,0.00
2023-12-01T05:32:52.054Z,0.00
2023-12-01T05:34:01.766Z,0.00
2023-12-01T05:34:52.999Z,0.00
2023-12-01T05:35:54.779Z,4.00
2023-12-01T05:37:24.303Z,4.00
2023-12-01T05:39:47.018Z,0.00
2023-12-01T05:40:47.230Z,0.00
2023-12-01T05:41:47.886Z,0.00
2023-12-01T05:42:46.717Z,0.00
2023-12-01T05:43:46.587Z,0.00
2023-12-01T05:44:47.345Z,0.00
2023-12-01T05:45:47.903Z,0.00
2023-12-01T05:46:46.688Z,0.00
2023-12-01T05:47:46.707Z,0.00
2023-12-01T05:48:46.666Z,0.00
2023-12-01T05:49:46.571Z,0.00
2023-12-01T05:50:46.538Z,0.00
2023-12-01T05:51:46.596Z,0.00
2023-12-01T05:52:46.795Z,0.00
2023-12-01T05:53:54.263Z,0.00
2023-12-01T05:54:47.659Z,0.00
2023-12-01T05:55:49.063Z,0.00
2023-12-01T05:56:50.432Z,0.00
2023-12-01T05:59:00.082Z,0.00
2023-12-01T05:59:46.963Z,0.00
2023-12-01T06:00:46.639Z,0.00
2023-12-01T06:01:46.579Z,0.00
2023-12-01T06:02:46.497Z,0.00
2023-12-01T06:03:46.560Z,0.00
2023-12-01T06:04:46.482Z,0.00
2023-12-01T06:06:09.449Z,0.00
2023-12-01T06:06:46.428Z,0.00
2023-12-01T06:07:46.337Z,0.00
2023-12-01T06:08:46.318Z,0.00
2023-12-01T06:09:46.383Z,0.00
2023-12-01T06:10:46.286Z,0.00
2023-12-01T06:11:46.362Z,0.00
2023-12-01T06:12:46.322Z,0.00
2023-12-01T06:13:46.330Z,0.00
2023-12-01T06:14:46.282Z,0.00
2023-12-01T06:15:46.308Z,0.00
2023-12-01T06:16:46.262Z,0.00
2023-12-01T06:17:46.263Z,0.00
2023-12-01T06:18:46.250Z,0.00
2023-12-01T06:19:46.224Z,0.00
2023-12-01T06:20:46.185Z,0.00
2023-12-01T06:21:46.255Z,0.00
2023-12-01T06:22:46.189Z,0.00
2023-12-01T06:23:46.170Z,0.00
2023-12-01T06:24:46.213Z,0.00
2023-12-01T06:25:46.227Z,0.00
2023-12-01T06:26:46.162Z,0.00
2023-12-01T06:27:46.268Z,0.00
2023-12-01T06:28:46.120Z,0.00
2023-12-01T06:29:46.125Z,0.00
2023-12-01T06:30:46.151Z,0.00
2023-12-01T06:31:46.170Z,0.00
2023-12-01T06:32:46.149Z,0.00
2023-12-01T06:33:46.112Z,4.00
2023-12-01T06:34:46.107Z,4.00
2023-12-01T06:35:46.043Z,4.00
2023-12-01T06:36:46.153Z,0.00
2023-12-01T06:37:47.799Z,4.00
2023-12-01T06:38:46.016Z,4.00
2023-12-01T06:41:11.463Z,8.00
2023-12-01T06:42:11.628Z,4.00
2023-12-01T06:43:12.821Z,8.00
2023-12-01T06:44:11.454Z,8.00
2023-12-01T06:45:11.452Z,12.00
2023-12-01T06:46:13.240Z,12.00
2023-12-01T06:47:11.435Z,16.00
2023-12-01T06:48:11.396Z,20.00
2023-12-01T06:49:11.399Z,24.00
2023-12-01T06:50:11.351Z,20.00
2023-12-01T06:51:11.440Z,24.00
2023-12-01T06:52:11.443Z,24.00
2023-12-01T06:53:11.352Z,24.00
2023-12-01T06:54:11.418Z,24.00
2023-12-01T06:55:13.683Z,28.00
2023-12-01T06:56:11.338Z,28.00
2023-12-01T06:57:11.372Z,32.00
2023-12-01T06:58:11.560Z,36.00
2023-12-01T06:59:11.708Z,40.00
2023-12-01T07:00:11.304Z,40.00
2023-12-01T07:01:11.265Z,44.00
2023-12-01T07:02:11.263Z,44.00
2023-12-01T07:03:12.270Z,44.00
2023-12-01T07:04:11.231Z,52.00
2023-12-01T07:05:11.213Z,52.00
2023-12-01T07:06:11.192Z,56.00
2023-12-01T07:07:11.228Z,52.00
2023-12-01T07:08:11.160Z,56.00
2023-12-01T07:09:11.188Z,60.00
2023-12-01T07:10:11.247Z,64.00
2023-12-01T07:11:11.137Z,68.00
2023-12-01T07:12:11.160Z,72.00
2023-12-01T07:13:11.285Z,72.00
2023-12-01T07:14:11.155Z,80.00
2023-12-01T07:15:11.153Z,84.00
2023-12-01T07:16:11.541Z,84.00
2023-12-01T07:17:11.136Z,92.00
2023-12-01T07:18:11.547Z,92.00
2023-12-01T07:19:11.212Z,92.00
2023-12-01T07:20:11.082Z,96.00
2023-12-01T07:21:11.032Z,96.00
2023-12-01T07:22:11.040Z,100.00
2023-12-01T07:23:11.009Z,104.00
2023-12-01T07:24:11.067Z,112.00
2023-12-01T07:25:11.050Z,120.00
2023-12-01T07:26:10.973Z,124.00
2023-12-01T07:27:11.007Z,136.00
2023-12-01T07:28:10.992Z,140.00
2023-12-01T07:29:10.992Z,148.00
2023-12-01T07:30:10.947Z,156.00
2023-12-01T07:31:10.982Z,160.00
2023-12-01T07:32:10.913Z,160.00
2023-12-01T07:33:10.994Z,168.00
2023-12-01T07:34:10.961Z,172.00
2023-12-01T07:35:10.891Z,168.00
2023-12-01T07:36:13.353Z,164.00
2023-12-01T07:37:10.931Z,168.00
2023-12-01T07:38:10.856Z,172.00
2023-12-01T07:39:10.831Z,180.00
2023-12-01T07:40:10.888Z,184.00
2023-12-01T07:41:10.832Z,184.00
2023-12-01T07:42:10.846Z,188.00
2023-12-01T07:43:10.885Z,184.00
2023-12-01T07:44:10.785Z,192.00
2023-12-01T07:45:11.715Z,192.00
2023-12-01T07:46:10.796Z,200.00
2023-12-01T07:47:10.807Z,212.00
2023-12-01T07:48:10.894Z,220.00
2023-12-01T07:49:10.800Z,236.00
2023-12-01T07:50:10.733Z,240.00
2023-12-01T07:51:10.720Z,244.00
2023-12-01T07:52:10.765Z,256.00
2023-12-01T07:53:10.707Z,268.00
2023-12-01T07:54:10.687Z,284.00
2023-12-01T07:55:10.736Z,308.00
2023-12-01T07:56:10.686Z,316.00
2023-12-01T07:57:10.678Z,308.00
2023-12-01T07:58:10.702Z,296.00
2023-12-01T07:59:10.678Z,288.00
2023-12-01T08:00:10.632Z,292.00
2023-12-01T08:01:10.663Z,300.00
2023-12-01T08:02:10.674Z,308.00
2023-12-01T08:03:10.719Z,312.00
2023-12-01T08:04:10.723Z,324.00
2023-12-01T08:05:10.607Z,320.00
2023-12-01T08:06:10.585Z,312.00
2023-12-01T08:07:12.615Z,320.00
2023-12-01T08:08:12.761Z,336.00
2023-12-01T08:09:11.723Z,352.00
2023-12-01T08:10:11.722Z,392.00
2023-12-01T08:11:11.720Z,484.00
2023-12-01T08:12:11.790Z,576.00
2023-12-01T08:13:11.771Z,724.00
2023-12-01T08:14:11.686Z,684.00
2023-12-01T08:15:11.680Z,624.00
2023-12-01T08:16:11.800Z,680.00
2023-12-01T08:17:11.716Z,608.00
2023-12-01T08:18:11.687Z,864.00
2023-12-01T08:19:11.631Z,652.00
2023-12-01T08:20:11.641Z,636.00
2023-12-01T08:21:12.568Z,864.00
2023-12-01T08:22:11.577Z,1120.00
2023-12-01T08:23:11.565Z,1160.00
2023-12-01T08:24:11.517Z,892.00
2023-12-01T08:25:11.601Z,1104.00
2023-12-01T08:26:11.553Z,1244.00
2023-12-01T08:27:12.030Z,1012.00
2023-12-01T08:28:11.525Z,1096.00
2023-12-01T08:29:11.472Z,1120.00
2023-12-01T08:30:18.233Z,904.00
2023-12-01T08:31:12.463Z,740.00
2023-12-01T08:32:11.487Z,744.00
2023-12-01T08:33:11.424Z,904.00
2023-12-01T08:34:22.022Z,840.00
2023-12-01T08:35:12.383Z,796.00
2023-12-01T08:36:11.413Z,776.00
2023-12-01T08:37:11.377Z,952.00
2023-12-01T08:38:12.370Z,1024.00
2023-12-01T08:39:11.450Z,1048.00
2023-12-01T08:40:11.400Z,980.00
2023-12-01T08:41:11.349Z,860.00
2023-12-01T08:42:11.349Z,888.00
2023-12-01T08:43:11.327Z,740.00
2023-12-01T08:44:11.322Z,736.00
2023-12-01T08:45:11.381Z,868.00
2023-12-01T08:46:11.361Z,968.00
2023-12-01T08:47:11.285Z,1008.00
2023-12-01T08:48:11.309Z,1116.00
2023-12-01T08:49:11.268Z,1132.00
2023-12-01T08:50:11.242Z,1152.00
2023-12-01T08:51:11.266Z,1136.00
2023-12-01T08:52:11.215Z,1232.00
2023-12-01T08:53:11.219Z,1228.00
2023-12-01T08:54:11.229Z,1196.00
2023-12-01T08:55:11.185Z,1128.00
2023-12-01T08:56:11.311Z,1012.00
2023-12-01T08:57:11.278Z,1116.00
2023-12-01T08:58:11.179Z,1196.00
2023-12-01T08:59:11.240Z,1212.00
2023-12-01T09:00:11.708Z,1152.00
2023-12-01T09:01:11.158Z,1248.00
2023-12-01T09:02:12.836Z,1344.00
2023-12-01T09:03:11.186Z,1212.00
2023-12-01T09:04:11.159Z,1380.00
2023-12-01T09:05:11.132Z,1292.00
2023-12-01T09:06:11.165Z,1100.00
2023-12-01T09:07:11.137Z,940.00
2023-12-01T09:08:11.109Z,880.00
2023-12-01T09:09:11.136Z,1136.00
2023-12-01T09:10:11.065Z,1280.00
2023-12-01T09:11:11.117Z,1384.00
2023-12-01T09:12:11.181Z,1532.00
2023-12-01T09:13:11.139Z,1624.00
2023-12-01T09:14:11.015Z,1576.00
2023-12-01T09:15:11.272Z,1432.00
2023-12-01T09:16:12.302Z,1696.00
2023-12-01T09:17:11.014Z,1708.00
2023-12-01T09:18:11.046Z,1860.00
2023-12-01T09:19:11.027Z,1924.00
2023-12-01T09:20:10.938Z,1924.00
2023-12-01T09:21:10.983Z,1760.00
2023-12-01T09:22:10.929Z,1704.00
2023-12-01T09:23:10.908Z,1500.00
2023-12-01T09:24:10.942Z,1332.00
2023-12-01T09:25:10.912Z,1188.00
2023-12-01T09:26:10.896Z,1420.00
2023-12-01T09:27:10.917Z,1368.00
2023-12-01T09:28:10.907Z,1308.00
2023-12-01T09:29:10.884Z,1260.00
2023-12-01T09:30:11.043Z,1364.00
2023-12-01T09:31:10.877Z,1104.00
2023-12-01T09:32:10.824Z,1044.00
2023-12-01T09:33:10.940Z,980.00
2023-12-01T09:34:10.886Z,944.00
2023-12-01T09:35:10.857Z,1020.00
2023-12-01T09:36:10.839Z,988.00
2023-12-01T09:37:10.819Z,1128.00
2023-12-01T09:38:10.803Z,1252.00
2023-12-01T09:39:10.899Z,1300.00
2023-12-01T09:40:10.811Z,1324.00
2023-12-01T09:41:10.782Z,1412.00
2023-12-01T09:42:10.830Z,1540.00
2023-12-01T09:43:10.720Z,1604.00
2023-12-01T09:44:13.943Z,1828.00
2023-12-01T09:45:11.769Z,2024.00
2023-12-01T09:46:11.845Z,1804.00
2023-12-01T09:47:10.734Z,1572.00
2023-12-01T09:48:10.873Z,1940.00
2023-12-01T09:49:10.775Z,1772.00
2023-12-01T09:50:10.666Z,1748.00
2023-12-01T09:51:10.738Z,1808.00
2023-12-01T09:52:10.715Z,1972.00
2023-12-01T09:53:10.658Z,1900.00
2023-12-01T09:54:10.765Z,1676.00
2023-12-01T09:55:11.659Z,1540.00
2023-12-01T09:56:10.591Z,1348.00
2023-12-01T09:57:11.475Z,1440.00
2023-12-01T09:58:10.592Z,1644.00
2023-12-01T09:59:10.601Z,1548.00
2023-12-01T10:00:10.594Z,1444.00
2023-12-01T10:01:10.548Z,1768.00
2023-12-01T10:02:10.625Z,1684.00
2023-12-01T10:03:10.676Z,1948.00
2023-12-01T10:04:10.659Z,2020.00
2023-12-01T10:05:10.571Z,1912.00
2023-12-01T10:06:10.501Z,1744.00
2023-12-01T10:07:10.501Z,1752.00
2023-12-01T10:08:10.460Z,1684.00
2023-12-01T10:09:10.556Z,1732.00
2023-12-01T10:10:10.471Z,1512.00
2023-12-01T10:11:10.436Z,1776.00
2023-12-01T10:12:10.545Z,2104.00
2023-12-01T10:13:11.420Z,2168.00
2023-12-01T10:14:10.418Z,2180.00
2023-12-01T10:15:10.514Z,2172.00
2023-12-01T10:16:10.405Z,2216.00
2023-12-01T10:17:10.372Z,2248.00
2023-12-01T10:18:14.314Z,2276.00
2023-12-01T10:19:13.033Z,2292.00
2023-12-01T10:20:10.450Z,2260.00
2023-12-01T10:21:10.395Z,2224.00
2023-12-01T10:22:10.363Z,2272.00
2023-12-01T10:23:10.410Z,2344.00
2023-12-01T10:24:10.408Z,2412.00
2023-12-01T10:25:10.287Z,2476.00
2023-12-01T10:26:10.414Z,2500.00
2023-12-01T10:27:10.494Z,2528.00
2023-12-01T10:28:10.311Z,2540.00
2023-12-01T10:29:10.360Z,2548.00
2023-12-01T10:30:10.417Z,2536.00
2023-12-01T10:31:10.326Z,2612.00
2023-12-01T10:32:10.346Z,2608.00
2023-12-01T10:33:10.324Z,2600.00
2023-12-01T10:34:10.306Z,2568.00
2023-12-01T10:35:10.323Z,2520.00
2023-12-01T10:36:10.462Z,2468.00
2023-12-01T10:37:10.180Z,2404.00
2023-12-01T10:38:10.284Z,2328.00
2023-12-01T10:39:10.339Z,2268.00
2023-12-01T10:40:10.183Z,2224.00
2023-12-01T10:41:10.195Z,2192.00
2023-12-01T10:42:10.254Z,2176.00
2023-12-01T10:43:10.154Z,2212.00
2023-12-01T10:44:10.123Z,2276.00
2023-12-01T10:45:10.128Z,2308.00
2023-12-01T10:46:10.178Z,2372.00
2023-12-01T10:47:11.974Z,2376.00
2023-12-01T10:48:10.226Z,2344.00
2023-12-01T10:49:10.086Z,2312.00
2023-12-01T10:50:10.073Z,2344.00
2023-12-01T10:51:10.116Z,2444.00
2023-12-01T10:52:10.137Z,2540.00
2023-12-01T10:53:10.027Z,2580.00
2023-12-01T10:54:10.046Z,2556.00
2023-12-01T10:55:09.992Z,2544.00
2023-12-01T10:56:10.036Z,2556.00
2023-12-01T10:57:10.145Z,2488.00
2023-12-01T10:58:09.968Z,2388.00
2023-12-01T10:59:09.941Z,2324.00
2023-12-01T11:00:09.997Z,2268.00
2023-12-01T11:01:09.999Z,2216.00
2023-12-01T11:02:09.952Z,2236.00
2023-12-01T11:03:09.984Z,2308.00
2023-12-01T11:04:10.001Z,2388.00
2023-12-01T11:05:09.857Z,2352.00
2023-12-01T11:06:10.883Z,2332.00
2023-12-01T11:07:09.818Z,2268.00
2023-12-01T11:08:09.846Z,2188.00
2023-12-01T11:09:09.980Z,2128.00
2023-12-01T11:10:41.640Z,2024.00
2023-12-01T11:11:58.186Z,1992.00
2023-12-01T11:12:37.027Z,1992.00
2023-12-01T11:13:09.903Z,2036.00
2023-12-01T11:14:09.839Z,2068.00
2023-12-01T11:15:09.770Z,2092.00
2023-12-01T11:16:09.776Z,2136.00
2023-12-01T11:17:09.736Z,2168.00
2023-12-01T11:18:09.970Z,2168.00
2023-12-01T11:19:09.898Z,2148.00
2023-12-01T11:20:09.683Z,2084.00
2023-12-01T11:21:09.685Z,2052.00
2023-12-01T11:22:09.646Z,2076.00
2023-12-01T11:23:09.647Z,2144.00
2023-12-01T11:24:09.679Z,2232.00
2023-12-01T11:25:09.615Z,2260.00
2023-12-01T11:26:09.646Z,2264.00
2023-12-01T11:27:09.614Z,2312.00
2023-12-01T11:28:09.596Z,2340.00
2023-12-01T11:29:10.654Z,2344.00
2023-12-01T11:30:09.705Z,2368.00
2023-12-01T11:31:09.804Z,2408.00
2023-12-01T11:32:09.639Z,2468.00
2023-12-01T11:33:09.730Z,2240.00
2023-12-01T11:34:09.644Z,2180.00
2023-12-01T11:35:09.617Z,2340.00
2023-12-01T11:36:09.532Z,2348.00
2023-12-01T11:37:09.542Z,2372.00
2023-12-01T11:38:09.497Z,2336.00
2023-12-01T11:39:09.551Z,2340.00
2023-12-01T11:40:09.466Z,2372.00
2023-12-01T11:41:20.629Z,2392.00
2023-12-01T11:42:09.635Z,2400.00
2023-12-01T11:43:15.425Z,2412.00
2023-12-01T11:44:11.552Z,2424.00
2023-12-01T11:45:09.634Z,2452.00
2023-12-01T11:46:09.668Z,2432.00
2023-12-01T11:47:09.613Z,2440.00
2023-12-01T11:48:09.752Z,2428.00
2023-12-01T11:49:09.616Z,2492.00
2023-12-01T11:50:09.460Z,2536.00
2023-12-01T11:51:09.442Z,2504.00
2023-12-01T11:52:09.418Z,2460.00
2023-12-01T11:53:09.403Z,2464.00
2023-12-01T11:54:09.440Z,2440.00
2023-12-01T11:55:09.427Z,2468.00
2023-12-01T11:56:09.417Z,2436.00
2023-12-01T11:57:10.561Z,2360.00
2023-12-01T11:58:31.385Z,2344.00
2023-12-01T11:59:10.778Z,2416.00
2023-12-01T12:00:09.428Z,2480.00
2023-12-01T12:01:09.471Z,2528.00
2023-12-01T12:02:09.596Z,2596.00
2023-12-01T12:03:09.390Z,2472.00
2023-12-01T12:04:09.453Z,2376.00
2023-12-01T12:05:09.478Z,2312.00
2023-12-01T12:06:09.351Z,2244.00
2023-12-01T12:07:09.280Z,2448.00
2023-12-01T12:08:09.318Z,2596.00
2023-12-01T12:09:09.352Z,2568.00
2023-12-01T12:10:09.398Z,2544.00
2023-12-01T12:11:09.220Z,2456.00
2023-12-01T12:12:09.290Z,2360.00
2023-12-01T12:13:09.208Z,2448.00
2023-12-01T12:14:09.211Z,2480.00
2023-12-01T12:15:09.206Z,2484.00
2023-12-01T12:16:09.215Z,2544.00
2023-12-01T12:17:09.237Z,2580.00
2023-12-01T12:18:09.307Z,2672.00
2023-12-01T12:19:09.242Z,2436.00
2023-12-01T12:20:15.077Z,2264.00
2023-12-01T12:21:11.288Z,2144.00
2023-12-01T12:22:09.087Z,2384.00
2023-12-01T12:23:09.076Z,2488.00
2023-12-01T12:24:09.142Z,2388.00
2023-12-01T12:25:09.199Z,2340.00
2023-12-01T12:26:09.043Z,2340.00
2023-12-01T12:27:09.118Z,2304.00
2023-12-01T12:28:09.062Z,2256.00
2023-12-01T12:29:09.148Z,2224.00
2023-12-01T12:30:09.138Z,2216.00
2023-12-01T12:31:09.094Z,2224.00
2023-12-01T12:32:13.687Z,2236.00
2023-12-01T12:33:09.094Z,2228.00
2023-12-01T12:34:09.123Z,2172.00
2023-12-01T12:35:09.004Z,2092.00
2023-12-01T12:36:09.025Z,2024.00
2023-12-01T12:37:08.941Z,1960.00
2023-12-01T12:38:08.933Z,1908.00
2023-12-01T12:39:09.042Z,1844.00
2023-12-01T12:40:08.903Z,1784.00
2023-12-01T12:41:08.915Z,1756.00
2023-12-01T12:42:09.082Z,1744.00
2023-12-01T12:43:08.878Z,1708.00
2023-12-01T12:44:08.933Z,1676.00
2023-12-01T12:45:08.867Z,1584.00
2023-12-01T12:46:08.873Z,1540.00
2023-12-01T12:47:08.801Z,1612.00
2023-12-01T12:48:08.893Z,1628.00
2023-12-01T12:49:08.844Z,1648.00
2023-12-01T12:50:08.806Z,1676.00
2023-12-01T12:51:08.824Z,1680.00